Time;durP1;ratioP1;P1;durP2;ratioP2;P2;SDS_P1;SDS_P2;PMS_P1;PMS_P2;Temp;Humidity;BMP_temperature;BMP_pressure;BME280_temperature;BME280_humidity;BME280_pressure;Samples;Min_cycle;Max_cycle;Signal;HPM_P1;HPM_P2
2022/10/12 00:01:23;;;;;;;5.72;5.03;;;18.10;98.50;;;;;;4995134;28;20192;-70
2022/10/12 00:03:49;;;;;;;6.15;5.45;;;18.10;98.50;;;;;;5012693;28;20207;-70
2022/10/12 00:06:22;;;;;;;5.28;4.78;;;18.10;98.50;;;;;;5012584;28;20551;-70
2022/10/12 00:08:51;;;;;;;5.38;4.75;;;18.10;98.50;;;;;;4994847;28;20180;-71
2022/10/12 00:11:21;;;;;;;7.35;4.85;;;18.10;98.40;;;;;;5012485;28;20216;-70
2022/10/12 00:13:48;;;;;;;6.10;4.88;;;18.10;98.40;;;;;;5027661;28;20207;-70
2022/10/12 00:16:16;;;;;;;7.35;5.40;;;18.10;98.50;;;;;;5027676;28;20180;-70
2022/10/12 00:18:43;;;;;;;5.05;4.55;;;18.10;98.50;;;;;;4995151;28;20180;-70
2022/10/12 00:21:15;;;;;;;6.63;5.40;;;18.10;98.40;;;;;;5012841;28;20180;-70
2022/10/12 00:23:43;;;;;;;6.47;5.65;;;18.10;98.50;;;;;;5027604;28;20216;-70
2022/10/12 00:26:21;;;;;;;6.93;5.68;;;18.10;98.50;;;;;;5011495;28;20179;-70
2022/10/12 00:28:48;;;;;;;6.82;5.75;;;18.10;98.50;;;;;;5027772;28;20188;-70
2022/10/12 00:31:18;;;;;;;7.63;5.70;;;18.10;98.50;;;;;;5027565;28;20307;-69
2022/10/12 00:33:45;;;;;;;6.72;5.53;;;18.10;98.40;;;;;;4994769;28;20765;-70
2022/10/12 00:36:19;;;;;;;6.03;4.88;;;18.10;98.30;;;;;;5011089;28;20192;-70
2022/10/12 00:38:46;;;;;;;6.63;5.15;;;18.10;98.40;;;;;;5029004;28;20180;-70
2022/10/12 00:41:14;;;;;;;7.32;5.30;;;18.10;98.20;;;;;;5047134;28;20187;-70
2022/10/12 00:43:42;;;;;;;6.60;5.15;;;18.10;98.30;;;;;;5030598;28;20277;-70
2022/10/12 00:46:23;;;;;;;5.65;5.13;;;18.10;98.20;;;;;;5030956;28;20282;-70
2022/10/12 00:48:56;;;;;;;7.18;5.43;;;18.10;98.20;;;;;;5030756;28;20168;-70
2022/10/12 00:51:22;;;;;;;7.25;5.40;;;18.10;98.30;;;;;;5015686;28;20235;-70
2022/10/12 00:54:01;;;;;;;7.13;5.03;;;18.10;98.20;;;;;;5034411;28;20231;-70
2022/10/12 00:56:32;;;;;;;6.50;5.63;;;18.10;98.20;;;;;;5051507;28;20278;-69
2022/10/12 00:59:04;;;;;;;6.22;5.63;;;18.10;98.30;;;;;;5018102;28;20191;-70
2022/10/12 01:01:34;;;;;;;6.13;5.50;;;18.10;98.20;;;;;;5034374;28;20189;-70
2022/10/12 01:04:01;;;;;;;5.28;4.78;;;18.10;98.20;;;;;;5035484;28;20221;-70
2022/10/12 01:06:29;;;;;;;5.30;4.80;;;18.10;98.20;;;;;;5034431;28;20179;-70
2022/10/12 01:08:56;;;;;;;6.43;5.32;;;18.10;98.30;;;;;;5050722;28;20164;-70
2022/10/12 01:11:22;;;;;;;5.55;5.05;;;18.10;98.10;;;;;;5034433;28;20215;-70
2022/10/12 01:13:48;;;;;;;5.85;5.18;;;18.10;98.20;;;;;;5050696;28;20218;-70
2022/10/12 01:16:40;;;;;;;5.30;4.57;;;18.10;98.10;;;;;;5035400;28;20199;-70
2022/10/12 01:19:08;;;;;;;6.40;5.15;;;18.10;98.00;;;;;;5050616;28;20693;-70
2022/10/12 01:21:46;;;;;;;5.80;4.90;;;18.10;98.00;;;;;;5034032;28;20188;-69
2022/10/12 01:24:27;;;;;;;6.18;5.50;;;18.10;98.00;;;;;;5034070;28;20705;-70
2022/10/12 01:27:08;;;;;;;5.85;5.30;;;18.10;98.00;;;;;;5034076;28;20179;-70
2022/10/12 01:30:06;;;;;;;6.85;5.82;;;18.10;98.20;;;;;;5033647;28;20321;-69
2022/10/12 01:32:53;;;;;;;5.60;4.82;;;18.10;98.00;;;;;;5034178;28;20196;-70
2022/10/12 01:35:54;;;;;;;4.97;4.47;;;18.10;98.00;;;;;;5033844;28;20187;-70
2022/10/12 01:38:38;;;;;;;6.05;5.40;;;18.10;97.90;;;;;;4991782;28;20260;-70
2022/10/12 01:41:33;;;;;;;8.52;6.00;;;18.10;98.10;;;;;;5033726;28;20221;-69
2022/10/12 01:43:59;;;;;;;5.63;4.97;;;18.10;98.00;;;;;;5033746;28;20203;-70
2022/10/12 01:46:38;;;;;;;5.88;5.25;;;18.10;97.80;;;;;;5033766;28;20252;-70
2022/10/12 01:49:05;;;;;;;5.40;4.90;;;18.10;97.90;;;;;;5033318;28;20210;-70
2022/10/12 01:51:41;;;;;;;5.60;4.95;;;18.10;97.80;;;;;;5033673;28;20199;-70
2022/10/12 01:54:28;;;;;;;5.50;4.80;;;18.10;97.80;;;;;;5033407;28;20301;-70
2022/10/12 01:57:17;;;;;;;5.95;4.97;;;18.10;97.70;;;;;;5033206;28;20187;-71
2022/10/12 02:00:10;;;;;;;6.63;6.03;;;18.10;97.80;;;;;;5033220;28;20618;-70
2022/10/12 02:03:06;;;;;;;5.47;4.97;;;18.00;97.70;;;;;;5033169;28;20183;-70
2022/10/12 02:05:47;;;;;;;5.63;4.95;;;18.10;97.70;;;;;;5033137;28;20193;-70
2022/10/12 02:08:56;;;;;;;5.03;4.60;;;18.10;97.60;;;;;;5049597;28;20233;-70
2022/10/12 02:11:25;;;;;;;5.70;5.10;;;18.10;97.70;;;;;;5033310;28;20261;-69
2022/10/12 02:14:14;;;;;;;6.30;5.65;;;18.10;97.80;;;;;;5034373;28;20277;-70
2022/10/12 02:16:48;;;;;;;6.35;5.50;;;18.10;97.70;;;;;;5033120;28;20178;-70
2022/10/12 02:19:22;;;;;;;6.13;5.43;;;18.10;97.60;;;;;;5031613;28;20579;-70
2022/10/12 02:21:50;;;;;;;7.22;5.45;;;18.10;97.60;;;;;;5024802;28;20184;-70
2022/10/12 02:24:17;;;;;;;5.78;5.18;;;18.10;97.60;;;;;;5061080;22;20233;-68
2022/10/12 02:26:47;;;;;;;6.10;5.55;;;18.10;97.60;;;;;;5032962;28;20180;-66
2022/10/12 02:29:20;;;;;;;5.32;4.80;;;18.00;97.60;;;;;;5032212;28;20276;-67
2022/10/12 02:32:03;;;;;;;5.97;5.38;;;18.10;97.60;;;;;;5032810;28;20171;-67
2022/10/12 02:34:49;;;;;;;5.82;5.30;;;18.10;97.60;;;;;;5033876;28;20199;-68
2022/10/12 02:37:59;;;;;;;6.55;5.95;;;18.10;97.70;;;;;;5032636;28;20172;-67
2022/10/12 02:40:32;;;;;;;6.35;5.75;;;18.10;97.60;;;;;;4979113;28;20303;-67
2022/10/12 02:43:19;;;;;;;6.20;5.05;;;18.00;97.50;;;;;;4995412;28;20195;-67
2022/10/12 02:45:48;;;;;;;5.95;5.35;;;18.00;97.40;;;;;;5020367;28;20202;-67
2022/10/12 02:48:22;;;;;;;6.55;5.63;;;18.10;97.50;;;;;;5033492;28;20176;-67
2022/10/12 02:50:53;;;;;;;5.72;5.22;;;18.10;97.60;;;;;;5032588;28;20207;-67
2022/10/12 02:53:22;;;;;;;6.05;5.45;;;18.00;97.60;;;;;;5032647;28;20176;-67
2022/10/12 02:55:58;;;;;;;7.35;5.78;;;18.00;97.60;;;;;;5032371;28;20189;-68
2022/10/12 02:58:24;;;;;;;6.72;6.03;;;18.00;97.80;;;;;;5032158;28;20190;-67
2022/10/12 03:00:50;;;;;;;5.85;5.35;;;18.10;97.60;;;;;;5032547;28;20191;-67
2022/10/12 03:03:16;;;;;;;6.03;5.05;;;18.00;97.50;;;;;;5048740;28;20183;-66
2022/10/12 03:05:42;;;;;;;6.45;5.03;;;18.10;97.60;;;;;;5048512;28;20645;-67
2022/10/12 03:08:08;;;;;;;6.15;5.55;;;18.00;97.60;;;;;;5031726;28;20198;-67
2022/10/12 03:10:34;;;;;;;6.68;6.07;;;18.00;97.50;;;;;;5032328;28;20222;-67
2022/10/12 03:13:00;;;;;;;6.00;5.43;;;18.00;97.50;;;;;;5031915;28;20180;-67
2022/10/12 03:15:26;;;;;;;7.18;5.68;;;18.00;97.50;;;;;;5031272;28;20585;-68
2022/10/12 03:17:51;;;;;;;6.25;5.65;;;18.00;97.50;;;;;;5031578;28;20194;-67
2022/10/12 03:20:17;;;;;;;6.53;5.93;;;18.00;97.50;;;;;;5032060;28;20183;-66
2022/10/12 03:22:43;;;;;;;7.53;6.00;;;18.00;97.40;;;;;;5048719;28;20324;-68
2022/10/12 03:25:09;;;;;;;5.97;5.38;;;18.00;97.40;;;;;;5031830;28;20276;-68
2022/10/12 03:27:34;;;;;;;6.40;5.80;;;18.00;97.40;;;;;;5031666;28;20240;-67
2022/10/12 03:30:00;;;;;;;6.40;5.63;;;18.00;97.50;;;;;;5031943;28;20301;-68
2022/10/12 03:32:26;;;;;;;6.45;5.47;;;18.00;97.80;;;;;;5031692;28;20264;-68
2022/10/12 03:34:51;;;;;;;7.10;6.40;;;18.00;97.60;;;;;;5031611;28;20203;-67
2022/10/12 03:37:17;;;;;;;7.00;6.18;;;18.00;97.40;;;;;;5031613;28;20616;-67
2022/10/12 03:39:43;;;;;;;6.53;5.93;;;18.00;97.50;;;;;;5048040;28;20194;-67
2022/10/12 03:42:09;;;;;;;6.72;6.03;;;18.00;97.50;;;;;;5031703;28;20195;-67
2022/10/12 03:44:35;;;;;;;7.90;6.63;;;18.00;97.40;;;;;;5015184;28;20215;-68
2022/10/12 03:47:01;;;;;;;7.10;6.40;;;18.00;97.50;;;;;;5031460;28;20181;-67
2022/10/12 03:49:26;;;;;;;6.72;6.13;;;18.10;97.60;;;;;;5047789;28;20194;-67
2022/10/12 03:51:53;;;;;;;7.35;6.65;;;18.00;97.50;;;;;;5048241;28;20265;-67
2022/10/12 03:54:18;;;;;;;7.68;6.32;;;18.00;97.50;;;;;;5048049;28;20213;-67
2022/10/12 03:56:44;;;;;;;7.53;6.22;;;18.00;97.40;;;;;;5032806;28;20171;-67
2022/10/12 03:59:10;;;;;;;7.07;6.45;;;18.00;97.40;;;;;;5048004;28;20274;-68
2022/10/12 04:01:36;;;;;;;6.28;5.68;;;18.10;97.50;;;;;;5031183;28;20187;-67
2022/10/12 04:04:02;;;;;;;6.80;6.10;;;18.00;97.40;;;;;;5031210;28;20289;-67
2022/10/12 04:06:27;;;;;;;7.30;6.60;;;18.00;97.30;;;;;;5031118;28;20227;-66
2022/10/12 04:08:53;;;;;;;7.13;6.43;;;18.00;97.40;;;;;;5031017;28;20245;-66
2022/10/12 04:11:19;;;;;;;7.60;6.43;;;18.00;97.40;;;;;;5030898;28;20600;-67
2022/10/12 04:13:45;;;;;;;7.68;6.57;;;18.00;97.40;;;;;;5047611;28;20234;-67
2022/10/12 04:16:11;;;;;;;7.93;6.43;;;18.00;97.30;;;;;;5031247;28;20534;-67
2022/10/12 04:18:37;;;;;;;6.60;5.95;;;18.00;97.30;;;;;;5030680;28;20187;-67
2022/10/12 04:21:12;;;;;;;6.60;6.00;;;18.00;97.30;;;;;;5047943;28;20197;-68
2022/10/12 04:23:38;;;;;;;7.07;6.43;;;18.00;97.30;;;;;;5031113;28;20187;-66
2022/10/12 04:26:04;;;;;;;7.75;6.47;;;18.00;97.40;;;;;;5032933;28;20186;-67
2022/10/12 04:28:30;;;;;;;6.47;5.70;;;18.00;97.30;;;;;;5034937;28;20631;-67
2022/10/12 04:30:55;;;;;;;7.65;6.85;;;18.00;97.20;;;;;;5035258;28;20250;-68
2022/10/12 04:33:21;;;;;;;7.22;6.53;;;18.00;97.30;;;;;;5034882;28;20190;-67
2022/10/12 04:35:47;;;;;;;7.80;6.97;;;18.00;97.20;;;;;;5023396;28;20191;-68
2022/10/12 04:38:13;;;;;;;7.35;6.47;;;18.00;97.30;;;;;;5014896;28;20190;-68
2022/10/12 04:40:39;;;;;;;7.50;6.40;;;18.00;97.30;;;;;;5016154;28;20183;-67
2022/10/12 04:43:04;;;;;;;7.45;6.68;;;18.00;97.30;;;;;;5015361;28;20184;-65
2022/10/12 04:45:30;;;;;;;7.25;6.13;;;18.00;97.30;;;;;;5014931;28;20207;-68
2022/10/12 04:47:56;;;;;;;6.80;6.18;;;18.00;97.30;;;;;;5014744;28;20188;-68
2022/10/12 04:50:22;;;;;;;6.60;6.00;;;18.00;97.30;;;;;;5014968;28;20223;-68
2022/10/12 04:52:47;;;;;;;6.40;5.80;;;18.00;97.30;;;;;;4998473;28;20193;-67
2022/10/12 04:55:13;;;;;;;6.45;5.85;;;18.00;97.30;;;;;;4998229;28;20208;-67
2022/10/12 04:57:39;;;;;;;6.50;5.93;;;18.00;97.30;;;;;;4998371;28;20184;-67
2022/10/12 05:00:07;;;;;;;6.53;5.82;;;18.00;97.30;;;;;;5015052;28;20230;-67
2022/10/12 05:02:32;;;;;;;6.78;5.68;;;18.00;97.30;;;;;;5014498;28;20184;-66
2022/10/12 05:04:58;;;;;;;7.30;6.22;;;18.00;97.30;;;;;;5015678;28;20219;-67
2022/10/12 05:07:24;;;;;;;6.22;5.63;;;18.00;97.20;;;;;;4998460;28;20184;-66
2022/10/12 05:09:50;;;;;;;6.45;5.80;;;18.00;97.20;;;;;;5014646;28;20597;-68
2022/10/12 05:12:16;;;;;;;6.15;5.55;;;18.00;97.30;;;;;;5015719;28;20703;-67
2022/10/12 05:14:43;;;;;;;6.47;5.88;;;18.00;97.20;;;;;;4998507;28;20753;-67
2022/10/12 05:17:09;;;;;;;6.07;5.53;;;18.00;97.30;;;;;;5015287;28;20702;-68
2022/10/12 05:19:35;;;;;;;5.80;5.20;;;18.00;97.50;;;;;;5013850;28;20188;-68
2022/10/12 05:22:01;;;;;;;5.45;4.90;;;18.00;97.30;;;;;;4997636;28;20230;-66
2022/10/12 05:24:27;;;;;;;5.88;5.28;;;18.00;97.30;;;;;;5013613;28;20208;-68
2022/10/12 05:26:53;;;;;;;6.15;5.53;;;18.00;97.20;;;;;;5013408;28;20667;-68
2022/10/12 05:29:19;;;;;;;6.40;5.55;;;18.00;97.20;;;;;;5030036;28;20188;-68
2022/10/12 05:31:44;;;;;;;6.55;5.95;;;18.00;97.20;;;;;;5015103;28;20183;-68
2022/10/12 05:34:10;;;;;;;6.78;6.05;;;18.00;97.20;;;;;;5013519;28;20207;-68
2022/10/12 05:36:36;;;;;;;7.15;6.43;;;18.00;97.20;;;;;;5014573;28;20203;-68
2022/10/12 05:39:02;;;;;;;7.25;6.50;;;18.00;97.20;;;;;;4997197;28;20242;-69
2022/10/12 05:41:28;;;;;;;6.88;6.15;;;18.00;97.20;;;;;;5013619;28;20188;-68
2022/10/12 05:43:53;;;;;;;6.63;6.03;;;18.00;97.30;;;;;;5008499;28;20218;-68
2022/10/12 05:46:19;;;;;;;7.28;6.05;;;18.00;97.20;;;;;;5049155;28;20184;-68
2022/10/12 05:48:45;;;;;;;6.53;5.93;;;18.00;97.30;;;;;;5015299;28;20196;-68
2022/10/12 05:51:10;;;;;;;7.13;6.40;;;18.00;97.20;;;;;;5018810;28;20208;-68
2022/10/12 05:53:36;;;;;;;6.47;5.88;;;18.00;97.20;;;;;;5014509;28;20192;-68
2022/10/12 05:56:02;;;;;;;7.07;5.88;;;18.00;97.20;;;;;;4996576;28;20198;-68
2022/10/12 05:58:29;;;;;;;6.68;6.07;;;18.00;97.20;;;;;;5011900;28;20195;-68
2022/10/12 06:01:11;;;;;;;7.90;6.45;;;18.00;97.10;;;;;;5027966;28;20188;-68
2022/10/12 06:03:37;;;;;;;7.15;6.45;;;18.00;97.20;;;;;;5028187;28;20199;-68
2022/10/12 06:06:05;;;;;;;6.47;5.80;;;18.00;97.10;;;;;;5012593;28;20184;-67
2022/10/12 06:08:32;;;;;;;5.97;5.38;;;18.00;97.10;;;;;;5014029;28;20195;-67
2022/10/12 06:10:58;;;;;;;6.15;5.40;;;18.00;97.10;;;;;;5029604;28;20286;-68
2022/10/12 06:13:24;;;;;;;6.80;5.85;;;18.00;97.20;;;;;;4996560;28;20613;-68
2022/10/12 06:15:50;;;;;;;7.78;5.70;;;18.00;97.10;;;;;;4996604;28;20271;-68
2022/10/12 06:18:17;;;;;;;7.13;5.72;;;18.00;97.10;;;;;;5029217;28;20280;-68
2022/10/12 06:21:00;;;;;;;7.82;6.60;;;18.00;97.10;;;;;;5015559;28;20234;-68
2022/10/12 06:23:26;;;;;;;7.50;6.70;;;18.00;97.10;;;;;;5012632;28;20184;-67
2022/10/12 06:25:52;;;;;;;7.60;6.72;;;18.00;97.20;;;;;;5013944;28;20192;-67
2022/10/12 06:28:20;;;;;;;6.97;6.28;;;18.00;97.10;;;;;;4996228;28;20271;-66
2022/10/12 06:30:56;;;;;;;7.40;6.50;;;18.00;97.20;;;;;;5013719;28;20204;-66
2022/10/12 06:33:23;;;;;;;7.47;6.72;;;18.00;97.10;;;;;;5029016;28;20618;-68
2022/10/12 06:35:49;;;;;;;7.90;6.10;;;18.00;97.20;;;;;;5012542;28;20466;-68
2022/10/12 06:38:15;;;;;;;7.20;6.50;;;18.00;97.10;;;;;;5012164;28;20226;-68
2022/10/12 06:40:42;;;;;;;7.47;6.40;;;18.00;97.10;;;;;;4996307;28;20219;-68
2022/10/12 06:43:08;;;;;;;7.00;6.35;;;18.00;97.10;;;;;;5012363;28;20184;-68
2022/10/12 06:45:35;;;;;;;6.95;6.25;;;18.00;97.10;;;;;;5014712;28;20203;-68
2022/10/12 06:48:01;;;;;;;7.00;5.57;;;18.00;97.10;;;;;;4995893;28;20223;-68
2022/10/12 06:50:27;;;;;;;7.72;6.75;;;18.00;97.10;;;;;;5011586;28;20216;-68
2022/10/12 06:52:53;;;;;;;7.35;6.20;;;18.00;97.00;;;;;;5013263;28;20194;-68
2022/10/12 06:55:19;;;;;;;6.60;5.65;;;18.00;97.00;;;;;;5031850;28;20203;-67
2022/10/12 06:57:45;;;;;;;7.00;6.25;;;18.00;97.00;;;;;;5015056;28;20193;-67
2022/10/12 07:00:12;;;;;;;7.28;6.28;;;18.00;97.00;;;;;;5031661;28;20210;-68
2022/10/12 07:02:38;;;;;;;7.07;6.05;;;18.00;97.00;;;;;;5031978;28;20214;-68
2022/10/12 07:05:06;;;;;;;8.10;6.53;;;18.00;97.10;;;;;;5031364;28;20211;-68
2022/10/12 07:07:34;;;;;;;6.80;6.10;;;18.00;97.20;;;;;;5015177;28;20187;-68
2022/10/12 07:10:01;;;;;;;7.00;6.07;;;18.00;97.20;;;;;;5031252;28;20620;-68
2022/10/12 07:12:27;;;;;;;7.32;6.10;;;18.00;97.10;;;;;;5031941;28;20186;-68
2022/10/12 07:14:56;;;;;;;6.97;6.28;;;18.00;97.20;;;;;;5014938;28;20210;-68
2022/10/12 07:17:22;;;;;;;7.82;6.80;;;18.00;97.10;;;;;;5031793;28;20223;-68
2022/10/12 07:19:48;;;;;;;7.32;6.28;;;18.00;97.20;;;;;;5014892;28;20281;-68
2022/10/12 07:22:13;;;;;;;7.85;6.10;;;18.00;97.20;;;;;;5031473;28;20187;-68
2022/10/12 07:24:39;;;;;;;6.72;6.03;;;18.00;97.20;;;;;;5031205;28;20207;-68
2022/10/12 07:27:09;;;;;;;5.90;5.40;;;18.00;97.20;;;;;;5031598;28;20540;-68
2022/10/12 07:29:36;;;;;;;6.68;6.07;;;18.00;97.20;;;;;;5030757;28;20199;-68
2022/10/12 07:32:03;;;;;;;7.28;6.57;;;18.00;97.10;;;;;;5031436;28;20187;-68
2022/10/12 07:34:29;;;;;;;6.70;6.00;;;18.00;97.10;;;;;;5031205;28;20294;-68
2022/10/12 07:36:56;;;;;;;7.35;6.65;;;18.00;97.20;;;;;;5031086;28;20337;-68
2022/10/12 07:39:23;;;;;;;6.70;6.00;;;18.00;97.10;;;;;;5030929;28;20238;-68
2022/10/12 07:41:50;;;;;;;6.28;5.68;;;18.00;97.10;;;;;;5047834;28;20183;-68
2022/10/12 07:44:18;;;;;;;7.30;6.20;;;18.00;97.20;;;;;;5031012;28;20211;-68
2022/10/12 07:46:45;;;;;;;5.82;5.28;;;18.00;97.10;;;;;;5032267;28;20270;-67
2022/10/12 07:49:13;;;;;;;7.40;5.20;;;18.00;97.00;;;;;;5031950;28;20180;-68
2022/10/12 07:51:39;;;;;;;7.05;5.97;;;18.00;97.10;;;;;;5030777;28;20251;-67
2022/10/12 07:54:06;;;;;;;6.30;5.70;;;18.00;97.20;;;;;;5047352;28;20203;-66
2022/10/12 07:56:32;;;;;;;7.03;6.00;;;18.00;97.20;;;;;;5047546;28;20189;-68
2022/10/12 07:58:58;;;;;;;6.50;5.80;;;18.00;97.20;;;;;;5047318;28;20187;-68
2022/10/12 08:01:28;;;;;;;6.47;5.68;;;18.00;97.10;;;;;;5047149;28;20677;-67
2022/10/12 08:03:55;;;;;;;6.50;5.85;;;18.00;97.20;;;;;;5014122;28;20203;-68
2022/10/12 08:06:26;;;;;;;7.47;6.47;;;18.00;97.20;;;;;;5047621;28;20187;-68
2022/10/12 08:08:52;;;;;;;7.15;6.45;;;18.00;97.10;;;;;;5030781;28;20183;-66
2022/10/12 08:11:19;;;;;;;7.07;6.07;;;18.00;97.20;;;;;;5030790;28;20207;-68
2022/10/12 08:13:46;;;;;;;6.95;6.07;;;18.00;97.30;;;;;;5045830;28;20210;-67
2022/10/12 08:16:17;;;;;;;7.20;6.50;;;18.00;97.20;;;;;;5014139;28;20175;-68
2022/10/12 08:18:43;;;;;;;6.97;6.28;;;18.00;97.10;;;;;;5047090;28;20581;-67
2022/10/12 08:21:12;;;;;;;7.78;6.25;;;18.00;97.20;;;;;;5030734;28;20178;-68
2022/10/12 08:23:38;;;;;;;6.70;5.97;;;18.00;97.20;;;;;;5030498;28;20229;-67
2022/10/12 08:26:06;;;;;;;7.35;6.63;;;18.00;97.20;;;;;;5042220;22;20269;-72
2022/10/12 08:28:32;;;;;;;7.90;6.45;;;18.00;97.10;;;;;;5049780;28;20216;-72
2022/10/12 08:30:58;;;;;;;7.28;5.88;;;18.00;97.10;;;;;;5033945;28;20291;-72
2022/10/12 08:33:28;;;;;;;6.22;5.57;;;18.10;97.10;;;;;;5051491;28;20170;-71
2022/10/12 08:35:54;;;;;;;6.90;6.07;;;18.00;97.10;;;;;;5033105;28;20254;-72
2022/10/12 08:38:20;;;;;;;7.72;6.45;;;18.00;97.00;;;;;;5030471;28;20204;-71
2022/10/12 08:40:52;;;;;;;6.75;6.05;;;18.00;97.10;;;;;;5050333;28;20197;-71
2022/10/12 08:43:56;;;;;;;6.07;5.47;;;18.10;97.10;;;;;;5050184;28;20182;-72
2022/10/12 08:46:25;;;;;;;6.65;6.00;;;18.10;97.20;;;;;;5033778;28;20233;-71
2022/10/12 08:49:04;;;;;;;6.32;5.72;;;18.10;97.20;;;;;;5050094;28;20186;-72
2022/10/12 08:51:45;;;;;;;6.13;5.63;;;18.10;97.20;;;;;;5033784;28;20221;-71
2022/10/12 08:54:21;;;;;;;6.47;5.65;;;18.10;97.20;;;;;;5050064;28;20621;-72
2022/10/12 08:56:47;;;;;;;6.72;6.03;;;18.10;97.20;;;;;;5051286;28;20233;-72
2022/10/12 08:59:18;;;;;;;6.15;5.55;;;18.10;97.10;;;;;;5049752;28;20185;-71
2022/10/12 09:02:00;;;;;;;7.25;5.63;;;18.10;97.10;;;;;;5066650;28;20182;-72
2022/10/12 09:05:08;;;;;;;6.75;6.00;;;18.10;97.20;;;;;;5051141;28;20332;-72
2022/10/12 09:07:41;;;;;;;5.93;5.38;;;18.10;97.20;;;;;;5066687;28;20225;-72
2022/10/12 09:10:46;;;;;;;6.60;6.00;;;18.10;97.30;;;;;;5016638;28;20264;-72
2022/10/12 09:13:31;;;;;;;6.03;5.43;;;18.00;97.30;;;;;;5069260;28;20194;-71
2022/10/12 09:16:22;;;;;;;7.00;5.55;;;18.10;97.20;;;;;;5053691;28;20206;-71
2022/10/12 09:19:02;;;;;;;6.15;5.55;;;18.10;97.20;;;;;;5053806;28;20202;-71
2022/10/12 09:21:31;;;;;;;6.60;5.47;;;18.10;97.20;;;;;;5020581;28;20202;-71
2022/10/12 09:23:58;;;;;;;6.72;6.10;;;18.10;97.60;;;;;;5078756;28;20312;-72
2022/10/12 09:26:36;;;;;;;6.22;5.47;;;18.10;97.20;;;;;;5039857;28;20220;-71
2022/10/12 09:29:25;;;;;;;7.00;5.63;;;18.10;97.20;;;;;;5056758;28;20189;-72
2022/10/12 09:32:27;;;;;;;6.78;5.32;;;18.10;97.20;;;;;;5040127;28;20608;-71
2022/10/12 09:34:54;;;;;;;5.88;5.28;;;18.10;97.20;;;;;;5039895;28;20205;-71
2022/10/12 09:37:24;;;;;;;6.10;5.38;;;18.10;97.30;;;;;;5056605;28;20222;-71
2022/10/12 09:39:51;;;;;;;5.82;5.32;;;18.10;97.30;;;;;;5073508;28;20180;-72
2022/10/12 09:42:17;;;;;;;6.10;5.50;;;18.10;97.20;;;;;;5056495;28;20262;-72
2022/10/12 09:44:45;;;;;;;5.60;5.00;;;18.10;97.30;;;;;;5056377;28;20213;-72
2022/10/12 09:47:22;;;;;;;6.22;5.63;;;18.10;97.20;;;;;;5056440;28;20189;-71
2022/10/12 09:49:51;;;;;;;5.75;5.25;;;18.10;97.20;;;;;;5056120;28;20233;-71
2022/10/12 09:52:22;;;;;;;6.63;5.00;;;18.10;97.20;;;;;;5056485;28;20173;-72
2022/10/12 09:55:06;;;;;;;5.60;5.00;;;18.10;97.10;;;;;;5073014;28;20201;-72
2022/10/12 09:57:42;;;;;;;5.40;4.90;;;18.10;97.20;;;;;;5056268;28;20197;-71
2022/10/12 10:00:37;;;;;;;5.75;5.15;;;18.10;97.20;;;;;;5055874;28;20660;-71
2022/10/12 10:03:03;;;;;;;6.13;5.30;;;18.10;97.20;;;;;;5039100;28;20259;-71
2022/10/12 10:05:37;;;;;;;6.03;5.40;;;18.10;97.20;;;;;;5039423;28;20206;-71
2022/10/12 10:08:22;;;;;;;5.72;4.88;;;18.10;97.30;;;;;;5072794;28;20288;-70
2022/10/12 10:10:58;;;;;;;5.57;4.70;;;18.10;97.20;;;;;;5055986;28;20210;-72
2022/10/12 10:13:34;;;;;;;5.40;4.70;;;18.10;97.20;;;;;;5072761;28;20216;-72
2022/10/12 10:16:10;;;;;;;5.53;5.03;;;18.10;97.20;;;;;;5039302;28;20229;-72
2022/10/12 10:18:52;;;;;;;5.43;4.65;;;18.10;97.10;;;;;;5039282;28;20181;-70
2022/10/12 10:21:35;;;;;;;5.95;5.30;;;18.10;97.40;;;;;;5073653;28;20204;-71
2022/10/12 10:24:18;;;;;;;5.43;4.93;;;18.10;97.10;;;;;;5073593;28;20196;-71
2022/10/12 10:26:55;;;;;;;4.85;4.45;;;18.10;97.20;;;;;;5072203;28;20212;-72
2022/10/12 10:29:21;;;;;;;5.80;5.13;;;18.10;97.20;;;;;;5089161;28;20221;-69
2022/10/12 10:31:47;;;;;;;5.82;5.22;;;18.10;97.20;;;;;;5055586;28;20299;-72
2022/10/12 10:34:21;;;;;;;5.35;4.68;;;18.10;97.10;;;;;;5055670;28;20192;-71
2022/10/12 10:36:57;;;;;;;5.32;4.85;;;18.10;97.10;;;;;;5055521;28;20189;-72
2022/10/12 10:39:31;;;;;;;5.30;4.80;;;18.10;97.20;;;;;;5071854;28;20201;-72
2022/10/12 10:42:32;;;;;;;4.65;4.25;;;18.10;97.20;;;;;;5072251;28;20185;-72
2022/10/12 10:45:01;;;;;;;5.05;4.47;;;18.10;97.20;;;;;;5010131;28;20693;-72
2022/10/12 10:47:30;;;;;;;5.00;4.50;;;18.10;97.20;;;;;;5054991;28;20177;-72
2022/10/12 10:50:00;;;;;;;5.45;4.88;;;18.10;97.30;;;;;;5055677;28;20220;-71
2022/10/12 10:52:34;;;;;;;6.10;4.50;;;18.10;97.20;;;;;;5072563;28;20201;-71
2022/10/12 10:55:09;;;;;;;5.22;4.72;;;18.20;97.30;;;;;;5072658;28;20206;-71
2022/10/12 10:57:40;;;;;;;6.35;4.93;;;18.10;97.20;;;;;;5055603;28;20181;-71
2022/10/12 11:00:15;;;;;;;4.88;4.40;;;18.20;97.30;;;;;;5055680;28;20186;-72
2022/10/12 11:02:56;;;;;;;4.50;4.10;;;18.20;97.20;;;;;;5055339;28;20201;-71
2022/10/12 11:05:36;;;;;;;5.50;3.90;;;18.20;97.20;;;;;;5072036;28;20213;-71
2022/10/12 11:08:27;;;;;;;5.28;4.38;;;18.10;97.20;;;;;;5071871;28;20217;-70
2022/10/12 11:11:09;;;;;;;5.55;4.50;;;18.20;97.30;;;;;;5071910;28;20201;-71
2022/10/12 11:13:51;;;;;;;5.05;4.47;;;18.20;97.30;;;;;;5071689;28;20221;-71
2022/10/12 11:16:37;;;;;;;4.53;4.13;;;18.20;97.40;;;;;;5038425;28;20348;-71
2022/10/12 11:19:38;;;;;;;4.80;4.15;;;18.20;97.40;;;;;;5055182;28;20226;-71
2022/10/12 11:22:39;;;;;;;5.07;4.57;;;18.20;97.30;;;;;;5055036;28;20216;-69
2022/10/12 11:25:30;;;;;;;4.60;4.20;;;18.20;97.30;;;;;;5049186;28;20217;-71
2022/10/12 11:27:56;;;;;;;4.70;4.30;;;18.10;97.30;;;;;;5038491;28;20178;-70
2022/10/12 11:30:27;;;;;;;4.40;4.00;;;18.20;97.30;;;;;;5054906;28;20220;-71
2022/10/12 11:33:14;;;;;;;5.35;4.40;;;18.20;97.20;;;;;;5055296;28;20182;-70
2022/10/12 11:35:44;;;;;;;4.68;4.28;;;18.20;97.20;;;;;;5037786;28;20208;-71
2022/10/12 11:38:52;;;;;;;4.82;3.72;;;18.20;97.10;;;;;;5055113;28;20214;-70
2022/10/12 11:41:44;;;;;;;6.70;4.35;;;18.20;97.20;;;;;;5055206;28;20177;-71
2022/10/12 11:44:26;;;;;;;4.20;3.80;;;18.20;97.30;;;;;;5038363;28;20190;-71
2022/10/12 11:47:00;;;;;;;6.38;3.90;;;18.20;97.10;;;;;;5038362;28;20307;-70
2022/10/12 11:49:33;;;;;;;4.28;3.88;;;18.20;97.20;;;;;;5054455;28;20586;-71
2022/10/12 11:52:08;;;;;;;5.95;4.13;;;18.20;96.90;;;;;;5054861;28;20193;-72
2022/10/12 11:55:36;;;;;;;6.03;4.72;;;18.20;97.00;;;;;;5071324;28;20200;-70
2022/10/12 11:58:29;;;;;;;5.03;4.03;;;18.20;97.40;;;;;;5071573;28;20276;-71
2022/10/12 12:01:08;;;;;;;4.55;4.00;;;18.20;97.60;;;;;;5054340;28;20186;-71
2022/10/12 12:03:42;;;;;;;4.68;3.85;;;18.20;97.40;;;;;;5037290;28;20186;-71
2022/10/12 12:06:29;;;;;;;4.10;3.80;;;18.20;97.30;;;;;;5037226;28;20201;-70
2022/10/12 12:09:01;;;;;;;5.38;4.25;;;18.20;97.30;;;;;;5053602;28;20181;-70
2022/10/12 12:11:33;;;;;;;5.10;4.28;;;18.20;97.50;;;;;;5071632;28;20235;-71
2022/10/12 12:14:20;;;;;;;5.25;4.18;;;18.20;97.40;;;;;;5037169;28;20208;-71
2022/10/12 12:16:48;;;;;;;4.63;3.67;;;18.20;97.30;;;;;;5037345;28;20189;-70
2022/10/12 12:19:36;;;;;;;4.30;3.90;;;18.20;97.50;;;;;;5053611;28;20251;-71
2022/10/12 12:22:27;;;;;;;4.82;3.88;;;18.20;97.50;;;;;;5052988;28;20191;-71
2022/10/12 12:24:54;;;;;;;4.82;3.80;;;18.20;97.30;;;;;;5033633;28;20210;-71
2022/10/12 12:27:31;;;;;;;4.60;3.85;;;18.20;97.20;;;;;;5051622;28;20181;-71
2022/10/12 12:30:00;;;;;;;4.68;3.88;;;18.20;97.20;;;;;;5017124;28;20216;-71
2022/10/12 12:32:43;;;;;;;5.38;4.30;;;18.20;97.10;;;;;;5033971;28;20183;-71
2022/10/12 12:35:36;;;;;;;3.83;3.47;;;18.30;97.30;;;;;;5033684;28;20208;-72
2022/10/12 12:38:11;;;;;;;4.63;3.78;;;18.30;97.30;;;;;;5033932;28;20197;-71
2022/10/12 12:40:40;;;;;;;5.45;3.70;;;18.20;97.30;;;;;;5017019;28;20239;-71
2022/10/12 12:43:29;;;;;;;4.57;3.55;;;18.20;97.20;;;;;;5033869;28;20186;-71
2022/10/12 12:46:11;;;;;;;4.25;3.85;;;18.30;97.30;;;;;;5026902;28;20258;-71
2022/10/12 12:48:43;;;;;;;4.47;3.85;;;18.30;97.40;;;;;;5073448;28;20299;-71
2022/10/12 12:51:37;;;;;;;3.95;3.58;;;18.20;97.30;;;;;;5074228;28;20212;-71
2022/10/12 12:54:24;;;;;;;4.80;3.60;;;18.30;97.40;;;;;;5075359;28;20182;-70
2022/10/12 12:57:30;;;;;;;4.78;3.80;;;18.30;97.40;;;;;;5057297;28;20601;-71
2022/10/12 13:00:19;;;;;;;4.95;3.78;;;18.30;97.40;;;;;;5057146;28;20310;-72
2022/10/12 13:03:35;;;;;;;4.32;3.40;;;18.20;97.20;;;;;;5074248;28;20181;-73
2022/10/12 13:06:40;;;;;;;4.80;4.00;;;18.30;97.50;;;;;;5073741;28;20219;-72
2022/10/12 13:09:36;;;;;;;5.97;3.97;;;18.20;97.70;;;;;;5073964;28;20190;-71
2022/10/12 13:12:17;;;;;;;4.82;3.70;;;18.30;97.40;;;;;;5073652;28;20346;-71
2022/10/12 13:15:07;;;;;;;4.35;3.92;;;18.20;97.30;;;;;;5036461;28;20213;-72
2022/10/12 13:18:14;;;;;;;4.47;4.07;;;18.30;97.40;;;;;;5037219;28;20193;-72
2022/10/12 13:20:45;;;;;;;5.25;3.33;;;18.30;97.30;;;;;;4957574;28;20232;-72